Terminal Aerodrome Forecast
Issued by NWS Bismarck, ND

Home | Current Version | Previous Version | Text Only | Print | Product List | Glossary Off
Versions: 1 2 3 4 5 6 7 8 9 10 11 12 13 14 15 16 17 18 19 20 21 22 23 24

869
FTUS43 KBIS 031654 AAB
TAFBIS
TAF AMD
KBIS 031654Z 0317/0412 26006KT P6SM -SN SCT030 OVC050
      TEMPO 0317/0318 3SM -SHSN BKN030 OVC040
     FM031900 29006KT P6SM BKN060
     FM040200 30005KT P6SM OVC060=

USA.gov is the U.S. government's official web portal to all federal, state and local government web resources and services.